createdAt,value
2022-10-06T00:02:23.170Z,99.90
2022-10-06T00:04:50.114Z,99.90
2022-10-06T00:07:17.067Z,99.90
2022-10-06T00:09:43.748Z,99.90
2022-10-06T00:12:10.576Z,99.90
2022-10-06T00:14:37.705Z,99.90
2022-10-06T00:17:04.875Z,99.90
2022-10-06T00:19:31.572Z,99.90
2022-10-06T00:21:58.245Z,99.90
2022-10-06T00:24:24.951Z,99.90
2022-10-06T00:26:51.582Z,99.90
2022-10-06T00:29:24.435Z,99.90
2022-10-06T00:31:51.996Z,99.90
2022-10-06T00:34:18.615Z,99.90
2022-10-06T00:36:45.235Z,99.90
2022-10-06T00:39:11.875Z,99.90
2022-10-06T00:41:39.456Z,99.90
2022-10-06T00:44:06.050Z,99.90
2022-10-06T00:46:46.195Z,99.90
2022-10-06T00:49:26.223Z,99.90
2022-10-06T00:51:59.152Z,99.90
2022-10-06T00:54:27.076Z,99.90
2022-10-06T00:56:55.515Z,99.90
2022-10-06T00:59:22.120Z,99.90
2022-10-06T01:02:14.811Z,99.90
2022-10-06T01:04:47.909Z,99.90
2022-10-06T01:07:15.738Z,99.90
2022-10-06T01:09:42.423Z,99.90
2022-10-06T01:12:09.360Z,99.90
2022-10-06T01:14:39.091Z,99.90
2022-10-06T01:17:35.745Z,99.90
2022-10-06T01:20:09.184Z,99.90
2022-10-06T01:22:45.091Z,99.90
2022-10-06T01:25:17.187Z,99.90
2022-10-06T01:27:51.212Z,99.90
2022-10-06T01:30:29.448Z,99.90
2022-10-06T01:32:56.456Z,99.90
2022-10-06T01:35:23.376Z,99.90
2022-10-06T01:37:50.104Z,99.90
2022-10-06T01:40:16.898Z,99.90
2022-10-06T01:42:45.005Z,99.90
2022-10-06T01:45:11.777Z,99.90
2022-10-06T01:47:38.678Z,99.90
2022-10-06T01:50:07.075Z,99.90
2022-10-06T01:52:34.673Z,99.90
2022-10-06T01:55:01.289Z,99.90
2022-10-06T01:57:30.108Z,99.90
2022-10-06T01:59:56.877Z,99.90
2022-10-06T02:02:24.167Z,99.90
2022-10-06T02:04:50.742Z,99.90
2022-10-06T02:07:18.228Z,99.90
2022-10-06T02:09:46.204Z,99.90
2022-10-06T02:12:13.191Z,99.90
2022-10-06T02:14:41.086Z,99.90
2022-10-06T02:17:09.833Z,99.90
2022-10-06T02:19:36.574Z,99.90
2022-10-06T02:22:03.796Z,99.90
2022-10-06T02:24:30.432Z,99.90
2022-10-06T02:26:57.043Z,99.90
2022-10-06T02:29:24.072Z,99.90
2022-10-06T02:31:52.085Z,99.90
2022-10-06T02:34:18.760Z,99.90
2022-10-06T02:36:45.502Z,99.90
2022-10-06T02:39:12.365Z,99.90
2022-10-06T02:41:40.281Z,99.90
2022-10-06T02:44:06.924Z,99.90
2022-10-06T02:46:33.764Z,99.90
2022-10-06T02:49:01.058Z,99.90
2022-10-06T02:51:27.802Z,99.90
2022-10-06T02:53:54.941Z,99.90
2022-10-06T02:56:24.335Z,99.90
2022-10-06T02:58:52.683Z,99.90
2022-10-06T03:01:28.207Z,99.90
2022-10-06T03:03:57.551Z,99.90
2022-10-06T03:06:29.801Z,99.90
2022-10-06T03:09:04.386Z,99.90
2022-10-06T03:11:37.931Z,99.90
2022-10-06T03:14:06.510Z,99.90
2022-10-06T03:16:38.970Z,99.90
2022-10-06T03:19:10.054Z,99.90
2022-10-06T03:21:40.349Z,99.90
2022-10-06T03:24:07.091Z,99.90
2022-10-06T03:26:37.108Z,99.90
2022-10-06T03:29:09.163Z,99.90
2022-10-06T03:31:40.695Z,99.90
2022-10-06T03:34:07.818Z,99.90
2022-10-06T03:36:35.516Z,99.90
2022-10-06T03:39:04.666Z,99.90
2022-10-06T03:41:35.052Z,99.90
2022-10-06T03:44:02.231Z,99.90
2022-10-06T03:46:33.447Z,99.90
2022-10-06T03:49:01.612Z,99.90
2022-10-06T03:51:40.988Z,99.90
2022-10-06T03:54:22.224Z,99.90
2022-10-06T03:56:50.720Z,99.90
2022-10-06T03:59:19.354Z,99.90
2022-10-06T04:01:48.374Z,99.90
2022-10-06T04:04:23.295Z,99.90
2022-10-06T04:06:53.936Z,99.90
2022-10-06T04:09:21.458Z,99.90
2022-10-06T04:11:48.515Z,99.90
2022-10-06T04:14:16.540Z,99.90
2022-10-06T04:16:48.055Z,99.90
2022-10-06T04:19:18.641Z,99.90
2022-10-06T04:21:49.110Z,99.90
2022-10-06T04:24:19.631Z,99.90
2022-10-06T04:26:52.271Z,99.90
2022-10-06T04:29:19.653Z,99.90
2022-10-06T04:31:55.284Z,99.90
2022-10-06T04:34:34.376Z,99.90
2022-10-06T04:37:00.979Z,99.90
2022-10-06T04:39:27.685Z,99.90
2022-10-06T04:41:54.626Z,99.90
2022-10-06T04:44:25.156Z,99.90
2022-10-06T04:46:53.840Z,99.90
2022-10-06T04:49:21.017Z,99.90
2022-10-06T04:51:50.886Z,99.90
2022-10-06T04:54:19.030Z,99.90
2022-10-06T04:56:47.468Z,99.90
2022-10-06T04:59:15.866Z,99.90
2022-10-06T05:01:44.228Z,99.90
2022-10-06T05:04:12.989Z,99.90
2022-10-06T05:06:41.798Z,99.90
2022-10-06T05:09:13.992Z,99.90
2022-10-06T05:11:48.043Z,99.90
2022-10-06T05:14:17.541Z,99.90
2022-10-06T05:16:47.276Z,99.90
2022-10-06T05:19:14.608Z,99.90
2022-10-06T05:21:42.271Z,99.90
2022-10-06T05:24:12.215Z,99.90
2022-10-06T05:26:39.049Z,99.90
2022-10-06T05:29:09.605Z,99.90
2022-10-06T05:31:42.939Z,99.90
2022-10-06T05:34:10.082Z,99.90
2022-10-06T05:36:36.842Z,99.90
2022-10-06T05:39:05.511Z,99.90
2022-10-06T05:41:54.339Z,99.90
2022-10-06T05:44:20.968Z,99.90
2022-10-06T05:46:48.018Z,99.90
2022-10-06T05:49:14.755Z,99.90
2022-10-06T05:52:02.968Z,99.90
2022-10-06T05:54:32.968Z,99.90
2022-10-06T05:57:00.202Z,99.90
2022-10-06T05:59:27.002Z,99.90
2022-10-06T06:01:55.271Z,99.90
2022-10-06T06:04:30.641Z,99.90
2022-10-06T06:06:57.401Z,99.90
2022-10-06T06:09:26.301Z,99.90
2022-10-06T06:11:54.900Z,99.90
2022-10-06T06:14:44.807Z,99.90
2022-10-06T06:17:16.788Z,99.90
2022-10-06T06:19:43.445Z,99.90
2022-10-06T06:22:10.186Z,99.90
2022-10-06T06:24:39.733Z,99.90
2022-10-06T06:27:07.368Z,99.90
2022-10-06T06:29:34.266Z,99.90
2022-10-06T06:32:03.318Z,99.90
2022-10-06T06:34:29.999Z,99.90
2022-10-06T06:37:02.361Z,99.90
2022-10-06T06:39:34.169Z,99.90
2022-10-06T06:42:02.020Z,99.90
2022-10-06T06:44:48.906Z,99.90
2022-10-06T06:47:31.974Z,99.90
2022-10-06T06:50:00.841Z,99.90
2022-10-06T06:52:29.239Z,99.90
2022-10-06T06:54:57.067Z,99.90
2022-10-06T06:57:24.052Z,99.90
2022-10-06T06:59:52.436Z,99.90
2022-10-06T07:02:19.877Z,99.90
2022-10-06T07:04:48.094Z,99.90
2022-10-06T07:07:16.851Z,99.90
2022-10-06T07:09:43.522Z,99.90
2022-10-06T07:12:12.184Z,99.90
2022-10-06T07:15:04.092Z,99.90
2022-10-06T07:17:53.605Z,99.90
2022-10-06T07:20:40.180Z,99.90
2022-10-06T07:23:30.464Z,99.90
2022-10-06T07:25:57.113Z,99.90
2022-10-06T07:28:23.913Z,99.90
2022-10-06T07:30:52.854Z,99.90
2022-10-06T07:33:20.821Z,99.90
2022-10-06T07:35:48.783Z,99.90
2022-10-06T07:38:18.560Z,99.90
2022-10-06T07:43:46.793Z,99.90
2022-10-06T07:46:14.305Z,99.90
2022-10-06T07:48:49.856Z,99.90
2022-10-06T07:51:18.876Z,99.90
2022-10-06T07:53:50.788Z,99.90
2022-10-06T07:56:26.384Z,99.90
2022-10-06T07:58:58.430Z,99.90
2022-10-06T08:01:27.311Z,99.90
2022-10-06T08:03:54.101Z,99.90
2022-10-06T08:06:23.532Z,99.90
2022-10-06T08:08:53.188Z,99.90
2022-10-06T08:11:21.605Z,99.90
2022-10-06T08:13:48.359Z,99.90
2022-10-06T08:16:17.761Z,99.90
2022-10-06T08:18:53.377Z,99.90
2022-10-06T08:21:23.906Z,99.90
2022-10-06T08:23:51.800Z,99.90
2022-10-06T08:26:20.473Z,99.90
2022-10-06T08:28:49.926Z,99.90
2022-10-06T08:31:18.694Z,99.90
2022-10-06T08:33:45.970Z,99.90
2022-10-06T08:36:18.981Z,99.90
2022-10-06T08:38:49.819Z,99.90
2022-10-06T08:41:21.236Z,99.90
2022-10-06T08:44:02.482Z,99.90
2022-10-06T08:46:36.325Z,99.90
2022-10-06T08:49:03.481Z,99.90
2022-10-06T08:52:09.077Z,99.90
2022-10-06T08:54:50.240Z,99.90
2022-10-06T08:57:25.011Z,99.90
2022-10-06T08:59:55.250Z,99.90
2022-10-06T09:02:32.391Z,99.90
2022-10-06T09:05:03.453Z,99.90
2022-10-06T09:07:41.414Z,99.90
2022-10-06T09:10:24.941Z,99.90
2022-10-06T09:12:56.830Z,99.90
2022-10-06T09:15:49.764Z,99.90
2022-10-06T09:18:24.591Z,99.90
2022-10-06T09:20:59.897Z,99.90
2022-10-06T09:23:49.125Z,99.90
2022-10-06T09:26:18.917Z,99.90
2022-10-06T09:28:46.374Z,99.90
2022-10-06T09:31:27.250Z,99.90
2022-10-06T09:34:01.597Z,99.90
2022-10-06T09:36:29.644Z,99.90
2022-10-06T09:39:00.213Z,99.90
2022-10-06T09:41:40.187Z,99.90
2022-10-06T09:44:24.439Z,99.90
2022-10-06T09:46:52.453Z,99.90
2022-10-06T09:49:24.719Z,99.90
2022-10-06T09:52:12.877Z,99.90
2022-10-06T09:54:41.844Z,99.90
2022-10-06T09:57:26.194Z,99.90
2022-10-06T10:00:01.845Z,99.90
2022-10-06T10:02:37.102Z,99.90
2022-10-06T10:05:09.274Z,99.90
2022-10-06T10:07:36.677Z,99.90
2022-10-06T10:10:20.557Z,99.90
2022-10-06T10:12:55.152Z,99.90
2022-10-06T10:15:21.734Z,99.90
2022-10-06T10:17:51.263Z,99.90
2022-10-06T10:20:25.151Z,99.90
2022-10-06T10:22:53.775Z,99.90
2022-10-06T10:25:29.685Z,99.90
2022-10-06T10:28:20.495Z,99.90
2022-10-06T10:31:12.663Z,99.90
2022-10-06T10:33:59.216Z,99.90
2022-10-06T10:36:41.008Z,99.90
2022-10-06T10:39:13.987Z,99.90
2022-10-06T10:41:53.044Z,99.90
2022-10-06T10:44:33.391Z,99.90
2022-10-06T10:47:18.857Z,99.90
2022-10-06T10:49:52.278Z,99.90
2022-10-06T10:52:28.947Z,99.90
2022-10-06T10:55:17.798Z,99.90
2022-10-06T10:57:46.281Z,99.90
2022-10-06T11:00:25.188Z,99.90
2022-10-06T11:02:55.099Z,99.90
2022-10-06T11:05:33.701Z,99.90
2022-10-06T11:08:25.993Z,99.90
2022-10-06T11:11:08.349Z,99.90
2022-10-06T11:13:44.497Z,99.90
2022-10-06T11:16:30.312Z,99.90
2022-10-06T11:19:21.101Z,99.90
2022-10-06T11:22:11.411Z,99.90
2022-10-06T11:24:46.800Z,99.90
2022-10-06T11:27:41.052Z,99.90
2022-10-06T11:30:19.617Z,99.90
2022-10-06T11:33:11.428Z,99.90
2022-10-06T11:35:41.572Z,99.90
2022-10-06T11:38:30.163Z,99.70
2022-10-06T11:41:18.690Z,99.30
2022-10-06T11:43:54.790Z,99.80
2022-10-06T11:46:57.706Z,99.10
2022-10-06T11:49:30.666Z,99.60
2022-10-06T11:52:08.301Z,99.80
2022-10-06T11:54:47.593Z,99.90
2022-10-06T11:57:29.368Z,99.00
2022-10-06T12:00:17.518Z,99.90
2022-10-06T12:02:47.124Z,99.90
2022-10-06T12:05:54.398Z,99.10
2022-10-06T12:08:08.846Z,99.90
2022-10-06T12:10:35.576Z,99.90
2022-10-06T12:14:12.376Z,99.90
2022-10-06T12:19:30.976Z,99.90
2022-10-06T12:22:27.800Z,99.90
2022-10-06T12:25:19.753Z,99.90
2022-10-06T12:28:19.344Z,99.90
2022-10-06T12:31:18.385Z,99.90
2022-10-06T12:33:45.694Z,99.90
2022-10-06T12:36:25.579Z,99.90
2022-10-06T12:39:02.093Z,99.90
2022-10-06T12:41:55.949Z,99.90
2022-10-06T12:44:37.921Z,99.90
2022-10-06T12:47:21.917Z,99.90
2022-10-06T12:49:58.509Z,99.90
2022-10-06T12:52:50.169Z,99.90
2022-10-06T12:55:43.680Z,99.90
2022-10-06T12:58:30.944Z,99.90
2022-10-06T13:01:08.388Z,99.90
2022-10-06T13:03:36.615Z,99.70
2022-10-06T13:06:06.449Z,99.10
2022-10-06T13:08:35.825Z,99.30
2022-10-06T13:11:25.050Z,98.70
2022-10-06T13:13:54.099Z,99.10
2022-10-06T13:16:25.094Z,98.70
2022-10-06T13:18:56.045Z,98.30
2022-10-06T13:21:59.122Z,98.00
2022-10-06T13:24:27.459Z,98.00
2022-10-06T13:26:54.550Z,98.00
2022-10-06T13:29:25.683Z,97.90
2022-10-06T13:31:54.501Z,98.10
2022-10-06T13:34:34.730Z,99.90
2022-10-06T13:37:02.227Z,99.90
2022-10-06T13:39:32.419Z,99.90
2022-10-06T13:42:03.594Z,99.90
2022-10-06T13:44:35.590Z,99.90
2022-10-06T13:47:05.648Z,99.90
2022-10-06T13:49:56.144Z,99.20
2022-10-06T13:52:32.987Z,99.30
2022-10-06T13:55:01.195Z,98.80
2022-10-06T13:57:40.089Z,98.70
2022-10-06T14:00:21.953Z,99.00
2022-10-06T14:02:52.889Z,98.70
2022-10-06T14:05:29.811Z,98.80
2022-10-06T14:08:02.100Z,98.80
2022-10-06T14:10:40.966Z,98.40
2022-10-06T14:13:29.426Z,98.00
2022-10-06T14:16:05.787Z,97.80
2022-10-06T14:18:38.393Z,97.50
2022-10-06T14:21:37.935Z,96.60
2022-10-06T14:24:16.911Z,96.10
2022-10-06T14:26:45.256Z,96.50
2022-10-06T14:29:14.164Z,97.10
2022-10-06T14:31:40.830Z,96.00
2022-10-06T14:34:14.503Z,95.80
2022-10-06T14:36:43.847Z,96.30
2022-10-06T14:39:13.587Z,96.60
2022-10-06T14:41:40.493Z,96.50
2022-10-06T14:44:10.163Z,96.90
2022-10-06T14:46:37.967Z,98.00
2022-10-06T14:49:07.446Z,97.90
2022-10-06T14:51:37.187Z,97.30
2022-10-06T14:54:05.956Z,97.60
2022-10-06T14:56:34.475Z,96.70
2022-10-06T14:59:05.389Z,96.90
2022-10-06T15:01:34.284Z,96.70
2022-10-06T15:04:11.239Z,96.80
2022-10-06T15:06:57.202Z,97.30
2022-10-06T15:09:27.128Z,96.50
2022-10-06T15:11:55.697Z,96.60
2022-10-06T15:14:23.057Z,96.70
2022-10-06T15:16:51.405Z,96.80
2022-10-06T15:19:17.985Z,96.60
2022-10-06T15:21:47.651Z,96.50
2022-10-06T15:24:16.160Z,96.80
2022-10-06T15:27:02.413Z,98.10
2022-10-06T15:29:29.296Z,97.30
2022-10-06T15:31:56.580Z,96.50
2022-10-06T15:34:31.520Z,96.50
2022-10-06T15:36:59.077Z,96.30
2022-10-06T15:39:30.906Z,96.70
2022-10-06T15:41:58.278Z,96.20
2022-10-06T15:44:25.204Z,96.20
2022-10-06T15:46:56.376Z,96.10
2022-10-06T15:49:25.178Z,96.30
2022-10-06T15:51:56.817Z,96.20
2022-10-06T15:54:32.238Z,99.60
2022-10-06T15:57:00.669Z,99.90
2022-10-06T15:59:28.992Z,98.40
2022-10-06T16:01:59.559Z,99.80
2022-10-06T16:04:34.685Z,98.60
2022-10-06T16:07:02.541Z,97.70
2022-10-06T16:09:38.141Z,99.70
2022-10-06T16:12:08.907Z,98.40
2022-10-06T16:14:35.638Z,97.90
2022-10-06T16:17:04.063Z,99.20
2022-10-06T16:19:32.506Z,99.90
2022-10-06T16:22:00.646Z,99.90
2022-10-06T16:24:27.364Z,98.10
2022-10-06T16:26:54.555Z,98.10
2022-10-06T16:29:21.857Z,97.70
2022-10-06T16:31:49.099Z,97.20
2022-10-06T16:34:16.253Z,97.10
2022-10-06T16:36:43.072Z,96.90
2022-10-06T16:39:19.067Z,96.50
2022-10-06T16:41:45.889Z,96.50
2022-10-06T16:44:12.851Z,96.50
2022-10-06T16:46:39.726Z,96.50
2022-10-06T16:49:08.451Z,96.90
2022-10-06T16:51:40.134Z,96.80
2022-10-06T16:54:09.269Z,96.90
2022-10-06T16:56:44.310Z,96.90
2022-10-06T16:59:19.217Z,97.10
2022-10-06T17:01:47.455Z,97.10
2022-10-06T17:04:22.720Z,97.30
2022-10-06T17:06:52.037Z,97.60
2022-10-06T17:09:26.852Z,97.30
2022-10-06T17:12:01.889Z,97.40
2022-10-06T17:14:33.132Z,97.50
2022-10-06T17:16:59.836Z,97.70
2022-10-06T17:19:28.617Z,97.80
2022-10-06T17:21:58.897Z,97.70
2022-10-06T17:24:28.239Z,97.80
2022-10-06T17:26:56.068Z,97.70
2022-10-06T17:29:23.048Z,97.60
2022-10-06T17:31:53.266Z,97.80
2022-10-06T17:34:22.907Z,97.70
2022-10-06T17:36:52.040Z,97.70
2022-10-06T17:39:21.617Z,97.60
2022-10-06T17:41:49.764Z,97.80
2022-10-06T17:44:21.104Z,97.80
2022-10-06T17:46:48.672Z,97.90
2022-10-06T17:49:16.530Z,98.00
2022-10-06T17:51:50.720Z,97.90
2022-10-06T17:54:19.994Z,97.80
2022-10-06T17:56:49.809Z,97.70
2022-10-06T17:59:22.301Z,97.70
2022-10-06T18:01:51.665Z,97.80
2022-10-06T18:04:19.500Z,97.80
2022-10-06T18:06:47.343Z,97.80
2022-10-06T18:09:15.101Z,97.80
2022-10-06T18:11:43.965Z,98.60
2022-10-06T18:14:15.146Z,97.90
2022-10-06T18:16:48.925Z,97.70
2022-10-06T18:19:20.335Z,97.80
2022-10-06T18:21:47.829Z,97.90
2022-10-06T18:24:22.788Z,97.80
2022-10-06T18:26:52.260Z,97.80
2022-10-06T18:29:21.940Z,97.80
2022-10-06T18:31:50.277Z,97.80
2022-10-06T18:35:45.225Z,97.90
2022-10-06T18:37:04.451Z,97.70
2022-10-06T18:39:31.963Z,97.80
2022-10-06T18:42:02.790Z,97.80
2022-10-06T18:44:48.175Z,98.20
2022-10-06T18:47:33.739Z,97.90
2022-10-06T18:50:00.375Z,97.80
2022-10-06T18:52:26.984Z,97.80
2022-10-06T18:54:53.564Z,97.80
2022-10-06T18:57:25.147Z,97.80
2022-10-06T18:59:54.825Z,97.80
2022-10-06T19:02:21.636Z,97.80
2022-10-06T19:04:48.441Z,97.90
2022-10-06T19:07:15.243Z,98.00
2022-10-06T19:09:46.438Z,97.90
2022-10-06T19:12:14.238Z,97.90
2022-10-06T19:14:47.113Z,97.80
2022-10-06T19:17:15.186Z,98.00
2022-10-06T19:19:47.905Z,97.90
2022-10-06T19:22:14.774Z,97.90
2022-10-06T19:24:43.286Z,98.20
2022-10-06T19:27:13.326Z,98.50
2022-10-06T19:29:45.396Z,98.70
2022-10-06T19:32:16.095Z,99.00
2022-10-06T19:34:43.653Z,99.00
2022-10-06T19:40:01.310Z,99.20
2022-10-06T19:42:46.620Z,99.60
2022-10-06T19:45:15.385Z,99.50
2022-10-06T19:47:42.265Z,99.50
2022-10-06T19:50:12.634Z,99.60
2022-10-06T19:52:40.449Z,99.60
2022-10-06T19:55:07.282Z,99.80
2022-10-06T19:57:34.152Z,99.60
2022-10-06T20:00:00.970Z,99.80
2022-10-06T20:02:28.660Z,99.80
2022-10-06T20:04:57.000Z,99.80
2022-10-06T20:07:27.845Z,99.80
2022-10-06T20:09:55.077Z,99.80
2022-10-06T20:12:24.939Z,99.90
2022-10-06T20:14:53.288Z,99.90
2022-10-06T20:17:20.695Z,99.90
2022-10-06T20:19:47.293Z,99.90
2022-10-06T20:22:13.952Z,99.90
2022-10-06T20:24:41.191Z,99.90
2022-10-06T20:27:08.719Z,99.90
2022-10-06T20:29:35.577Z,99.90
2022-10-06T20:32:02.283Z,99.90
2022-10-06T20:34:33.210Z,99.90
2022-10-06T20:37:05.218Z,99.90
2022-10-06T20:39:52.631Z,99.90
2022-10-06T20:42:20.670Z,99.90
2022-10-06T20:44:47.296Z,99.90
2022-10-06T20:47:14.273Z,99.90
2022-10-06T20:49:42.302Z,99.90
2022-10-06T20:52:09.717Z,99.90
2022-10-06T20:54:37.044Z,99.90
2022-10-06T20:57:05.651Z,99.90
2022-10-06T20:59:35.087Z,99.90
2022-10-06T21:02:03.166Z,99.90
2022-10-06T21:04:30.267Z,99.90
2022-10-06T21:06:57.640Z,99.90
2022-10-06T21:09:24.794Z,99.90
2022-10-06T21:11:52.240Z,99.90
2022-10-06T21:14:19.717Z,99.90
2022-10-06T21:16:47.972Z,99.90
2022-10-06T21:19:17.226Z,99.90
2022-10-06T21:21:49.786Z,99.90
2022-10-06T21:24:16.821Z,99.90
2022-10-06T21:26:43.655Z,99.90
2022-10-06T21:29:15.501Z,99.90
2022-10-06T21:31:43.721Z,99.90
2022-10-06T21:34:10.615Z,99.90
2022-10-06T21:36:37.821Z,99.90
2022-10-06T21:39:05.828Z,99.90
2022-10-06T21:41:40.465Z,99.90
2022-10-06T21:44:17.203Z,99.90
2022-10-06T21:46:55.403Z,99.90
2022-10-06T21:49:23.917Z,99.90
2022-10-06T21:51:53.276Z,99.90
2022-10-06T21:54:21.127Z,99.90
2022-10-06T21:56:48.348Z,99.90
2022-10-06T21:59:15.386Z,99.90
2022-10-06T22:01:44.451Z,99.90
2022-10-06T22:04:12.948Z,99.90
2022-10-06T22:06:40.047Z,99.90
2022-10-06T22:09:09.068Z,99.90
2022-10-06T22:11:38.807Z,99.90
2022-10-06T22:14:08.064Z,99.90
2022-10-06T22:16:36.617Z,99.90
2022-10-06T22:19:06.548Z,99.90
2022-10-06T22:21:36.924Z,99.90
2022-10-06T22:24:15.839Z,99.90
2022-10-06T22:26:43.472Z,99.90
2022-10-06T22:29:12.567Z,99.90
2022-10-06T22:31:40.966Z,99.90
2022-10-06T22:34:10.098Z,99.90
2022-10-06T22:36:40.480Z,99.90
2022-10-06T22:39:07.396Z,99.90
2022-10-06T22:41:37.127Z,99.90
2022-10-06T22:44:04.209Z,99.90
2022-10-06T22:46:33.293Z,99.90
2022-10-06T22:49:00.234Z,99.90
2022-10-06T22:51:27.062Z,99.90
2022-10-06T22:53:59.228Z,99.90
2022-10-06T22:56:32.994Z,99.90
2022-10-06T22:59:00.237Z,99.90
2022-10-06T23:01:30.186Z,99.90
2022-10-06T23:03:57.314Z,99.90
2022-10-06T23:06:24.636Z,99.90
2022-10-06T23:08:51.558Z,99.90
2022-10-06T23:11:20.701Z,99.90
2022-10-06T23:13:48.527Z,99.90
2022-10-06T23:16:17.601Z,99.90
2022-10-06T23:18:45.067Z,99.90
2022-10-06T23:21:21.459Z,99.90
2022-10-06T23:23:50.989Z,99.90
2022-10-06T23:26:19.059Z,99.90
2022-10-06T23:28:50.047Z,99.90
2022-10-06T23:31:16.813Z,99.90
2022-10-06T23:33:43.677Z,99.90
2022-10-06T23:36:15.005Z,99.90
2022-10-06T23:38:45.375Z,99.90
2022-10-06T23:41:12.516Z,99.90
2022-10-06T23:43:39.333Z,99.90
2022-10-06T23:46:06.497Z,99.90
2022-10-06T23:48:33.354Z,99.90
2022-10-06T23:51:08.594Z,99.90
2022-10-06T23:53:35.823Z,99.90
2022-10-06T23:56:03.913Z,99.90
2022-10-06T23:58:30.696Z,99.90
